sensor_id;sensor_type;location;lat;lon;timestamp;P1;durP1;ratioP1;P2;durP2;ratioP2
27113;SDS011;14648;49.730;8.614;2022-09-16T00:00:22;1.40;;;1.30;;
27113;SDS011;14648;49.730;8.614;2022-09-16T00:02:52;2.60;;;1.53;;
27113;SDS011;14648;49.730;8.614;2022-09-16T00:05:19;5.83;;;1.70;;
27113;SDS011;14648;49.730;8.614;2022-09-16T00:07:45;1.53;;;1.43;;
27113;SDS011;14648;49.730;8.614;2022-09-16T00:10:11;3.37;;;1.50;;
27113;SDS011;14648;49.730;8.614;2022-09-16T00:12:37;5.70;;;1.90;;
27113;SDS011;14648;49.730;8.614;2022-09-16T00:15:04;2.63;;;1.60;;
27113;SDS011;14648;49.730;8.614;2022-09-16T00:17:30;6.07;;;1.50;;
27113;SDS011;14648;49.730;8.614;2022-09-16T00:19:56;2.57;;;1.40;;
27113;SDS011;14648;49.730;8.614;2022-09-16T00:22:22;8.47;;;1.40;;
27113;SDS011;14648;49.730;8.614;2022-09-16T00:24:48;5.53;;;1.40;;
27113;SDS011;14648;49.730;8.614;2022-09-16T00:27:14;3.63;;;1.40;;
27113;SDS011;14648;49.730;8.614;2022-09-16T00:29:40;3.20;;;1.60;;
27113;SDS011;14648;49.730;8.614;2022-09-16T00:32:07;3.20;;;1.30;;
27113;SDS011;14648;49.730;8.614;2022-09-16T00:34:33;2.00;;;1.37;;
27113;SDS011;14648;49.730;8.614;2022-09-16T00:36:58;3.43;;;1.70;;
27113;SDS011;14648;49.730;8.614;2022-09-16T00:39:27;4.13;;;1.77;;
27113;SDS011;14648;49.730;8.614;2022-09-16T00:41:53;9.70;;;1.50;;
27113;SDS011;14648;49.730;8.614;2022-09-16T00:47:31;2.70;;;1.50;;
27113;SDS011;14648;49.730;8.614;2022-09-16T00:50:09;4.43;;;1.77;;
27113;SDS011;14648;49.730;8.614;2022-09-16T00:52:41;2.10;;;1.43;;
27113;SDS011;14648;49.730;8.614;2022-09-16T00:55:09;1.90;;;1.30;;
27113;SDS011;14648;49.730;8.614;2022-09-16T00:57:39;3.83;;;1.60;;
27113;SDS011;14648;49.730;8.614;2022-09-16T01:00:07;14.00;;;1.40;;
27113;SDS011;14648;49.730;8.614;2022-09-16T01:02:36;1.70;;;1.60;;
27113;SDS011;14648;49.730;8.614;2022-09-16T01:05:07;4.60;;;1.50;;
27113;SDS011;14648;49.730;8.614;2022-09-16T01:07:41;3.57;;;1.60;;
27113;SDS011;14648;49.730;8.614;2022-09-16T01:10:12;3.77;;;1.47;;
27113;SDS011;14648;49.730;8.614;2022-09-16T01:12:41;2.33;;;1.10;;
27113;SDS011;14648;49.730;8.614;2022-09-16T01:15:11;4.20;;;1.70;;
27113;SDS011;14648;49.730;8.614;2022-09-16T01:20:34;18.60;;;3.50;;
27113;SDS011;14648;49.730;8.614;2022-09-16T01:32:14;2.50;;;1.40;;
27113;SDS011;14648;49.730;8.614;2022-09-16T01:37:51;7.00;;;1.93;;
27113;SDS011;14648;49.730;8.614;2022-09-16T01:46:27;5.83;;;1.70;;
27113;SDS011;14648;49.730;8.614;2022-09-16T01:49:17;3.47;;;1.30;;
27113;SDS011;14648;49.730;8.614;2022-09-16T01:52:14;1.30;;;1.13;;
27113;SDS011;14648;49.730;8.614;2022-09-16T01:55:06;20.10;;;1.77;;
27113;SDS011;14648;49.730;8.614;2022-09-16T01:57:48;2.27;;;2.00;;
27113;SDS011;14648;49.730;8.614;2022-09-16T02:00:45;2.43;;;2.03;;
27113;SDS011;14648;49.730;8.614;2022-09-16T02:03:20;3.17;;;1.30;;
27113;SDS011;14648;49.730;8.614;2022-09-16T02:08:36;3.87;;;1.70;;
27113;SDS011;14648;49.730;8.614;2022-09-16T02:11:13;1.40;;;1.27;;
27113;SDS011;14648;49.730;8.614;2022-09-16T02:13:48;8.10;;;1.63;;
27113;SDS011;14648;49.730;8.614;2022-09-16T02:16:25;3.50;;;1.60;;
27113;SDS011;14648;49.730;8.614;2022-09-16T02:19:06;3.83;;;1.63;;
27113;SDS011;14648;49.730;8.614;2022-09-16T02:21:37;9.80;;;1.40;;
27113;SDS011;14648;49.730;8.614;2022-09-16T02:24:07;6.47;;;1.57;;
27113;SDS011;14648;49.730;8.614;2022-09-16T02:26:38;5.13;;;1.67;;
27113;SDS011;14648;49.730;8.614;2022-09-16T02:29:11;4.53;;;1.60;;
27113;SDS011;14648;49.730;8.614;2022-09-16T02:31:43;3.83;;;1.57;;
27113;SDS011;14648;49.730;8.614;2022-09-16T02:34:18;2.47;;;1.10;;
27113;SDS011;14648;49.730;8.614;2022-09-16T02:37:07;2.30;;;1.33;;
27113;SDS011;14648;49.730;8.614;2022-09-16T02:39:40;3.10;;;1.50;;
27113;SDS011;14648;49.730;8.614;2022-09-16T02:42:11;2.50;;;1.27;;
27113;SDS011;14648;49.730;8.614;2022-09-16T02:44:37;2.30;;;1.70;;
27113;SDS011;14648;49.730;8.614;2022-09-16T02:47:14;2.93;;;1.53;;
27113;SDS011;14648;49.730;8.614;2022-09-16T02:49:56;3.17;;;1.20;;
27113;SDS011;14648;49.730;8.614;2022-09-16T02:53:12;3.83;;;1.73;;
27113;SDS011;14648;49.730;8.614;2022-09-16T02:56:12;4.23;;;1.27;;
27113;SDS011;14648;49.730;8.614;2022-09-16T02:59:00;5.10;;;2.00;;
27113;SDS011;14648;49.730;8.614;2022-09-16T03:01:30;4.93;;;1.73;;
27113;SDS011;14648;49.730;8.614;2022-09-16T03:03:59;3.23;;;1.40;;
27113;SDS011;14648;49.730;8.614;2022-09-16T03:06:26;15.70;;;2.33;;
27113;SDS011;14648;49.730;8.614;2022-09-16T03:08:53;3.13;;;1.40;;
27113;SDS011;14648;49.730;8.614;2022-09-16T03:11:27;1.33;;;1.10;;
27113;SDS011;14648;49.730;8.614;2022-09-16T03:14:23;1.53;;;1.30;;
27113;SDS011;14648;49.730;8.614;2022-09-16T03:20:17;3.17;;;1.27;;
27113;SDS011;14648;49.730;8.614;2022-09-16T03:23:44;3.80;;;2.10;;
27113;SDS011;14648;49.730;8.614;2022-09-16T03:26:15;3.10;;;1.20;;
27113;SDS011;14648;49.730;8.614;2022-09-16T03:37:20;5.00;;;2.23;;
27113;SDS011;14648;49.730;8.614;2022-09-16T03:39:54;1.30;;;1.20;;
27113;SDS011;14648;49.730;8.614;2022-09-16T03:42:23;4.80;;;1.37;;
27113;SDS011;14648;49.730;8.614;2022-09-16T03:44:50;13.77;;;1.57;;
27113;SDS011;14648;49.730;8.614;2022-09-16T03:47:16;4.10;;;1.30;;
27113;SDS011;14648;49.730;8.614;2022-09-16T03:49:42;2.13;;;1.50;;
27113;SDS011;14648;49.730;8.614;2022-09-16T03:52:08;4.53;;;1.20;;
27113;SDS011;14648;49.730;8.614;2022-09-16T03:54:34;2.20;;;1.10;;
27113;SDS011;14648;49.730;8.614;2022-09-16T03:57:01;6.60;;;1.60;;
27113;SDS011;14648;49.730;8.614;2022-09-16T03:59:27;7.83;;;1.73;;
27113;SDS011;14648;49.730;8.614;2022-09-16T04:01:53;4.63;;;2.07;;
27113;SDS011;14648;49.730;8.614;2022-09-16T04:04:19;10.37;;;1.43;;
27113;SDS011;14648;49.730;8.614;2022-09-16T04:06:44;3.90;;;1.33;;
27113;SDS011;14648;49.730;8.614;2022-09-16T04:09:10;1.87;;;1.50;;
27113;SDS011;14648;49.730;8.614;2022-09-16T04:11:37;7.03;;;1.13;;
27113;SDS011;14648;49.730;8.614;2022-09-16T04:14:04;3.30;;;3.00;;
27113;SDS011;14648;49.730;8.614;2022-09-16T04:16:31;5.50;;;1.27;;
27113;SDS011;14648;49.730;8.614;2022-09-16T04:18:57;1.37;;;1.07;;
27113;SDS011;14648;49.730;8.614;2022-09-16T04:21:23;8.67;;;1.30;;
27113;SDS011;14648;49.730;8.614;2022-09-16T04:23:50;4.03;;;1.47;;
27113;SDS011;14648;49.730;8.614;2022-09-16T04:26:16;8.33;;;2.07;;
27113;SDS011;14648;49.730;8.614;2022-09-16T04:28:42;10.23;;;1.40;;
27113;SDS011;14648;49.730;8.614;2022-09-16T04:31:11;4.30;;;1.40;;
27113;SDS011;14648;49.730;8.614;2022-09-16T04:33:39;2.53;;;1.30;;
27113;SDS011;14648;49.730;8.614;2022-09-16T04:36:06;5.17;;;1.40;;
27113;SDS011;14648;49.730;8.614;2022-09-16T04:38:38;4.30;;;1.50;;
27113;SDS011;14648;49.730;8.614;2022-09-16T04:41:07;1.30;;;1.20;;
27113;SDS011;14648;49.730;8.614;2022-09-16T04:43:38;1.60;;;1.50;;
27113;SDS011;14648;49.730;8.614;2022-09-16T04:46:04;3.00;;;1.10;;
27113;SDS011;14648;49.730;8.614;2022-09-16T04:48:31;1.90;;;1.40;;
27113;SDS011;14648;49.730;8.614;2022-09-16T04:51:16;2.10;;;1.20;;
27113;SDS011;14648;49.730;8.614;2022-09-16T04:53:43;4.23;;;1.60;;
27113;SDS011;14648;49.730;8.614;2022-09-16T04:56:14;12.73;;;2.00;;
27113;SDS011;14648;49.730;8.614;2022-09-16T04:58:43;3.43;;;1.33;;
27113;SDS011;14648;49.730;8.614;2022-09-16T05:01:12;4.30;;;1.40;;
27113;SDS011;14648;49.730;8.614;2022-09-16T05:03:45;4.83;;;1.40;;
27113;SDS011;14648;49.730;8.614;2022-09-16T05:06:14;5.60;;;1.40;;
27113;SDS011;14648;49.730;8.614;2022-09-16T05:08:42;5.50;;;1.80;;
27113;SDS011;14648;49.730;8.614;2022-09-16T05:11:12;5.70;;;1.30;;
27113;SDS011;14648;49.730;8.614;2022-09-16T05:13:41;2.90;;;1.90;;
27113;SDS011;14648;49.730;8.614;2022-09-16T05:16:08;1.30;;;1.20;;
27113;SDS011;14648;49.730;8.614;2022-09-16T05:18:40;2.53;;;1.33;;
27113;SDS011;14648;49.730;8.614;2022-09-16T05:21:09;2.00;;;1.60;;
27113;SDS011;14648;49.730;8.614;2022-09-16T05:23:38;3.53;;;2.13;;
27113;SDS011;14648;49.730;8.614;2022-09-16T05:26:09;2.23;;;1.40;;
27113;SDS011;14648;49.730;8.614;2022-09-16T05:28:44;3.20;;;1.50;;
27113;SDS011;14648;49.730;8.614;2022-09-16T05:31:14;6.50;;;1.27;;
27113;SDS011;14648;49.730;8.614;2022-09-16T05:33:43;4.23;;;1.27;;
27113;SDS011;14648;49.730;8.614;2022-09-16T05:36:16;2.40;;;1.47;;
27113;SDS011;14648;49.730;8.614;2022-09-16T05:38:43;2.77;;;1.80;;
27113;SDS011;14648;49.730;8.614;2022-09-16T05:41:09;3.27;;;1.70;;
27113;SDS011;14648;49.730;8.614;2022-09-16T05:43:36;2.20;;;1.63;;
27113;SDS011;14648;49.730;8.614;2022-09-16T05:46:03;3.67;;;2.00;;
27113;SDS011;14648;49.730;8.614;2022-09-16T05:48:31;2.93;;;1.57;;
27113;SDS011;14648;49.730;8.614;2022-09-16T05:50:59;6.13;;;1.70;;
27113;SDS011;14648;49.730;8.614;2022-09-16T05:53:30;1.70;;;1.60;;
27113;SDS011;14648;49.730;8.614;2022-09-16T05:55:59;6.37;;;1.80;;
27113;SDS011;14648;49.730;8.614;2022-09-16T05:58:27;6.97;;;1.63;;
27113;SDS011;14648;49.730;8.614;2022-09-16T06:00:58;2.60;;;1.60;;
27113;SDS011;14648;49.730;8.614;2022-09-16T06:03:48;4.77;;;1.87;;
27113;SDS011;14648;49.730;8.614;2022-09-16T06:09:02;5.80;;;1.73;;
27113;SDS011;14648;49.730;8.614;2022-09-16T06:11:35;2.00;;;1.70;;
27113;SDS011;14648;49.730;8.614;2022-09-16T06:14:04;2.50;;;1.90;;
27113;SDS011;14648;49.730;8.614;2022-09-16T06:16:30;9.80;;;2.23;;
27113;SDS011;14648;49.730;8.614;2022-09-16T06:18:57;2.93;;;1.83;;
27113;SDS011;14648;49.730;8.614;2022-09-16T06:21:28;2.13;;;1.93;;
27113;SDS011;14648;49.730;8.614;2022-09-16T06:23:55;5.37;;;1.80;;
27113;SDS011;14648;49.730;8.614;2022-09-16T06:26:22;6.57;;;1.83;;
27113;SDS011;14648;49.730;8.614;2022-09-16T06:28:51;3.97;;;1.67;;
27113;SDS011;14648;49.730;8.614;2022-09-16T06:31:24;4.93;;;1.30;;
27113;SDS011;14648;49.730;8.614;2022-09-16T06:33:52;3.37;;;1.20;;
27113;SDS011;14648;49.730;8.614;2022-09-16T06:36:24;14.93;;;2.20;;
27113;SDS011;14648;49.730;8.614;2022-09-16T06:38:52;6.23;;;2.00;;
27113;SDS011;14648;49.730;8.614;2022-09-16T06:41:19;3.23;;;1.40;;
27113;SDS011;14648;49.730;8.614;2022-09-16T06:43:46;2.77;;;1.60;;
27113;SDS011;14648;49.730;8.614;2022-09-16T06:46:15;2.90;;;2.13;;
27113;SDS011;14648;49.730;8.614;2022-09-16T06:48:48;3.90;;;1.73;;
27113;SDS011;14648;49.730;8.614;2022-09-16T06:51:21;6.93;;;1.57;;
27113;SDS011;14648;49.730;8.614;2022-09-16T06:53:50;3.53;;;1.90;;
27113;SDS011;14648;49.730;8.614;2022-09-16T06:56:21;4.30;;;1.30;;
27113;SDS011;14648;49.730;8.614;2022-09-16T06:58:47;4.50;;;2.10;;
27113;SDS011;14648;49.730;8.614;2022-09-16T07:01:18;6.00;;;1.60;;
27113;SDS011;14648;49.730;8.614;2022-09-16T07:03:52;2.60;;;1.77;;
27113;SDS011;14648;49.730;8.614;2022-09-16T07:06:20;7.63;;;1.93;;
27113;SDS011;14648;49.730;8.614;2022-09-16T07:08:48;9.80;;;2.00;;
27113;SDS011;14648;49.730;8.614;2022-09-16T07:11:17;5.03;;;2.07;;
27113;SDS011;14648;49.730;8.614;2022-09-16T07:13:47;5.00;;;1.70;;
27113;SDS011;14648;49.730;8.614;2022-09-16T07:16:15;8.47;;;1.70;;
27113;SDS011;14648;49.730;8.614;2022-09-16T07:18:44;2.37;;;1.60;;
27113;SDS011;14648;49.730;8.614;2022-09-16T07:21:15;3.07;;;1.27;;
27113;SDS011;14648;49.730;8.614;2022-09-16T07:23:43;7.20;;;1.80;;
27113;SDS011;14648;49.730;8.614;2022-09-16T07:26:11;2.83;;;1.47;;
27113;SDS011;14648;49.730;8.614;2022-09-16T07:28:39;3.67;;;2.23;;
27113;SDS011;14648;49.730;8.614;2022-09-16T07:31:10;5.90;;;1.27;;
27113;SDS011;14648;49.730;8.614;2022-09-16T07:33:43;7.73;;;1.43;;
27113;SDS011;14648;49.730;8.614;2022-09-16T07:36:12;6.83;;;1.43;;
27113;SDS011;14648;49.730;8.614;2022-09-16T07:38:41;13.23;;;1.90;;
27113;SDS011;14648;49.730;8.614;2022-09-16T07:41:21;4.50;;;1.60;;
27113;SDS011;14648;49.730;8.614;2022-09-16T07:43:52;1.83;;;1.20;;
27113;SDS011;14648;49.730;8.614;2022-09-16T07:46:20;3.50;;;1.30;;
27113;SDS011;14648;49.730;8.614;2022-09-16T07:48:47;3.83;;;1.37;;
27113;SDS011;14648;49.730;8.614;2022-09-16T07:51:20;4.90;;;1.50;;
27113;SDS011;14648;49.730;8.614;2022-09-16T07:53:52;7.13;;;1.33;;
27113;SDS011;14648;49.730;8.614;2022-09-16T07:56:23;5.07;;;1.10;;
27113;SDS011;14648;49.730;8.614;2022-09-16T07:58:53;3.47;;;1.10;;
27113;SDS011;14648;49.730;8.614;2022-09-16T08:01:20;5.57;;;1.50;;
27113;SDS011;14648;49.730;8.614;2022-09-16T08:03:46;6.10;;;1.77;;
27113;SDS011;14648;49.730;8.614;2022-09-16T08:06:14;7.07;;;1.80;;
27113;SDS011;14648;49.730;8.614;2022-09-16T08:08:43;2.60;;;1.73;;
27113;SDS011;14648;49.730;8.614;2022-09-16T08:11:10;3.10;;;1.30;;
27113;SDS011;14648;49.730;8.614;2022-09-16T08:13:38;5.93;;;2.10;;
27113;SDS011;14648;49.730;8.614;2022-09-16T08:16:06;4.37;;;1.30;;
27113;SDS011;14648;49.730;8.614;2022-09-16T08:18:38;5.60;;;1.23;;
27113;SDS011;14648;49.730;8.614;2022-09-16T08:21:06;2.43;;;1.27;;
27113;SDS011;14648;49.730;8.614;2022-09-16T08:23:35;8.07;;;1.53;;
27113;SDS011;14648;49.730;8.614;2022-09-16T08:26:02;3.10;;;1.50;;
27113;SDS011;14648;49.730;8.614;2022-09-16T08:28:29;4.17;;;1.40;;
27113;SDS011;14648;49.730;8.614;2022-09-16T08:31:00;4.73;;;1.10;;
27113;SDS011;14648;49.730;8.614;2022-09-16T08:33:26;5.90;;;1.87;;
27113;SDS011;14648;49.730;8.614;2022-09-16T08:36:07;7.10;;;2.03;;
27113;SDS011;14648;49.730;8.614;2022-09-16T08:38:39;2.13;;;1.10;;
27113;SDS011;14648;49.730;8.614;2022-09-16T08:49:02;3.90;;;1.10;;
27113;SDS011;14648;49.730;8.614;2022-09-16T08:51:55;5.93;;;1.73;;
27113;SDS011;14648;49.730;8.614;2022-09-16T08:54:30;2.67;;;1.20;;
27113;SDS011;14648;49.730;8.614;2022-09-16T08:57:04;1.73;;;1.40;;
27113;SDS011;14648;49.730;8.614;2022-09-16T08:59:38;7.17;;;1.10;;
27113;SDS011;14648;49.730;8.614;2022-09-16T09:02:17;2.60;;;1.03;;
27113;SDS011;14648;49.730;8.614;2022-09-16T09:07:48;4.37;;;2.10;;
27113;SDS011;14648;49.730;8.614;2022-09-16T09:10:48;3.67;;;1.60;;
27113;SDS011;14648;49.730;8.614;2022-09-16T09:28:17;8.90;;;1.20;;
27113;SDS011;14648;49.730;8.614;2022-09-16T09:34:21;0.77;;;0.77;;
27113;SDS011;14648;49.730;8.614;2022-09-16T09:43:16;3.23;;;0.90;;
27113;SDS011;14648;49.730;8.614;2022-09-16T09:48:29;3.10;;;0.87;;
27113;SDS011;14648;49.730;8.614;2022-09-16T09:51:11;3.47;;;0.97;;
27113;SDS011;14648;49.730;8.614;2022-09-16T09:54:02;4.03;;;1.20;;
27113;SDS011;14648;49.730;8.614;2022-09-16T09:56:46;1.73;;;1.13;;
27113;SDS011;14648;49.730;8.614;2022-09-16T10:02:18;5.40;;;1.27;;
27113;SDS011;14648;49.730;8.614;2022-09-16T10:04:46;7.30;;;1.10;;
27113;SDS011;14648;49.730;8.614;2022-09-16T10:07:13;0.90;;;0.80;;
27113;SDS011;14648;49.730;8.614;2022-09-16T10:09:50;8.00;;;1.50;;
27113;SDS011;14648;49.730;8.614;2022-09-16T10:12:29;2.87;;;0.90;;
27113;SDS011;14648;49.730;8.614;2022-09-16T10:14:58;1.53;;;1.10;;
27113;SDS011;14648;49.730;8.614;2022-09-16T10:17:24;5.40;;;1.47;;
27113;SDS011;14648;49.730;8.614;2022-09-16T10:19:57;4.70;;;1.43;;
27113;SDS011;14648;49.730;8.614;2022-09-16T10:22:30;7.13;;;1.63;;
27113;SDS011;14648;49.730;8.614;2022-09-16T10:24:59;7.40;;;1.83;;
27113;SDS011;14648;49.730;8.614;2022-09-16T10:27:34;10.53;;;1.40;;
27113;SDS011;14648;49.730;8.614;2022-09-16T10:30:06;2.90;;;1.10;;
27113;SDS011;14648;49.730;8.614;2022-09-16T10:32:44;6.40;;;1.20;;
27113;SDS011;14648;49.730;8.614;2022-09-16T10:35:24;2.20;;;0.80;;
27113;SDS011;14648;49.730;8.614;2022-09-16T10:37:58;4.60;;;0.80;;
27113;SDS011;14648;49.730;8.614;2022-09-16T10:40:29;8.43;;;0.90;;
27113;SDS011;14648;49.730;8.614;2022-09-16T10:42:58;7.30;;;1.57;;
27113;SDS011;14648;49.730;8.614;2022-09-16T10:45:35;3.23;;;0.93;;
27113;SDS011;14648;49.730;8.614;2022-09-16T10:48:06;1.63;;;0.70;;
27113;SDS011;14648;49.730;8.614;2022-09-16T10:51:03;4.77;;;1.20;;
27113;SDS011;14648;49.730;8.614;2022-09-16T10:53:31;7.23;;;0.70;;
27113;SDS011;14648;49.730;8.614;2022-09-16T10:56:02;1.00;;;0.70;;
27113;SDS011;14648;49.730;8.614;2022-09-16T10:58:31;5.20;;;0.87;;
27113;SDS011;14648;49.730;8.614;2022-09-16T11:06:36;2.90;;;0.90;;
27113;SDS011;14648;49.730;8.614;2022-09-16T11:09:30;1.10;;;0.70;;
27113;SDS011;14648;49.730;8.614;2022-09-16T11:21:49;2.63;;;0.90;;
27113;SDS011;14648;49.730;8.614;2022-09-16T11:24:37;6.40;;;0.97;;
27113;SDS011;14648;49.730;8.614;2022-09-16T11:27:34;4.03;;;0.97;;
27113;SDS011;14648;49.730;8.614;2022-09-16T11:30:47;2.00;;;0.73;;
27113;SDS011;14648;49.730;8.614;2022-09-16T11:36:53;6.47;;;1.07;;
27113;SDS011;14648;49.730;8.614;2022-09-16T11:55:17;6.43;;;1.20;;
27113;SDS011;14648;49.730;8.614;2022-09-16T11:57:58;1.57;;;1.20;;
27113;SDS011;14648;49.730;8.614;2022-09-16T12:00:30;1.53;;;0.87;;
27113;SDS011;14648;49.730;8.614;2022-09-16T12:05:48;5.37;;;1.20;;
27113;SDS011;14648;49.730;8.614;2022-09-16T12:10:55;5.77;;;0.83;;
27113;SDS011;14648;49.730;8.614;2022-09-16T12:13:34;5.70;;;1.30;;
27113;SDS011;14648;49.730;8.614;2022-09-16T12:16:50;2.83;;;0.90;;
27113;SDS011;14648;49.730;8.614;2022-09-16T12:19:05;2.70;;;1.03;;
27113;SDS011;14648;49.730;8.614;2022-09-16T12:21:46;3.13;;;0.93;;
27113;SDS011;14648;49.730;8.614;2022-09-16T12:24:21;2.03;;;0.70;;
27113;SDS011;14648;49.730;8.614;2022-09-16T12:27:08;2.30;;;0.70;;
27113;SDS011;14648;49.730;8.614;2022-09-16T12:32:22;3.53;;;0.90;;
27113;SDS011;14648;49.730;8.614;2022-09-16T12:35:12;3.57;;;1.23;;
27113;SDS011;14648;49.730;8.614;2022-09-16T12:40:21;3.33;;;0.87;;
27113;SDS011;14648;49.730;8.614;2022-09-16T12:43:03;2.63;;;0.80;;
27113;SDS011;14648;49.730;8.614;2022-09-16T12:46:17;2.77;;;0.80;;
27113;SDS011;14648;49.730;8.614;2022-09-16T12:49:18;1.00;;;0.77;;
27113;SDS011;14648;49.730;8.614;2022-09-16T12:52:25;1.47;;;0.70;;
27113;SDS011;14648;49.730;8.614;2022-09-16T12:55:28;0.80;;;0.70;;
27113;SDS011;14648;49.730;8.614;2022-09-16T13:01:24;5.90;;;0.80;;
27113;SDS011;14648;49.730;8.614;2022-09-16T13:04:02;2.60;;;0.90;;
27113;SDS011;14648;49.730;8.614;2022-09-16T13:06:36;1.33;;;0.70;;
27113;SDS011;14648;49.730;8.614;2022-09-16T13:09:31;0.60;;;0.57;;
27113;SDS011;14648;49.730;8.614;2022-09-16T13:12:02;2.00;;;0.97;;
27113;SDS011;14648;49.730;8.614;2022-09-16T13:14:32;0.70;;;0.60;;
27113;SDS011;14648;49.730;8.614;2022-09-16T13:17:13;0.63;;;0.60;;
27113;SDS011;14648;49.730;8.614;2022-09-16T13:19:46;1.77;;;0.80;;
27113;SDS011;14648;49.730;8.614;2022-09-16T13:22:19;0.90;;;0.63;;
27113;SDS011;14648;49.730;8.614;2022-09-16T13:25:09;3.37;;;1.00;;
27113;SDS011;14648;49.730;8.614;2022-09-16T13:33:47;0.70;;;0.60;;
27113;SDS011;14648;49.730;8.614;2022-09-16T13:38:55;4.40;;;0.70;;
27113;SDS011;14648;49.730;8.614;2022-09-16T13:41:37;1.20;;;0.67;;
27113;SDS011;14648;49.730;8.614;2022-09-16T13:49:35;0.97;;;0.60;;
27113;SDS011;14648;49.730;8.614;2022-09-16T13:52:34;1.80;;;0.50;;
27113;SDS011;14648;49.730;8.614;2022-09-16T13:55:00;1.20;;;0.70;;
27113;SDS011;14648;49.730;8.614;2022-09-16T14:00:46;0.73;;;0.70;;
27113;SDS011;14648;49.730;8.614;2022-09-16T14:09:01;1.13;;;1.00;;
27113;SDS011;14648;49.730;8.614;2022-09-16T14:15:00;2.23;;;0.70;;
27113;SDS011;14648;49.730;8.614;2022-09-16T14:20:14;1.80;;;0.80;;
27113;SDS011;14648;49.730;8.614;2022-09-16T14:22:44;2.07;;;0.70;;
27113;SDS011;14648;49.730;8.614;2022-09-16T14:30:57;1.17;;;0.70;;
27113;SDS011;14648;49.730;8.614;2022-09-16T14:33:27;1.27;;;0.60;;
27113;SDS011;14648;49.730;8.614;2022-09-16T14:35:57;1.83;;;0.60;;
27113;SDS011;14648;49.730;8.614;2022-09-16T14:38:29;1.33;;;0.70;;
27113;SDS011;14648;49.730;8.614;2022-09-16T14:41:09;0.90;;;0.70;;
27113;SDS011;14648;49.730;8.614;2022-09-16T14:43:43;0.90;;;0.70;;
27113;SDS011;14648;49.730;8.614;2022-09-16T14:46:09;3.43;;;0.90;;
27113;SDS011;14648;49.730;8.614;2022-09-16T14:48:37;0.67;;;0.60;;
27113;SDS011;14648;49.730;8.614;2022-09-16T14:51:18;0.70;;;0.60;;
27113;SDS011;14648;49.730;8.614;2022-09-16T14:53:54;2.20;;;0.50;;
27113;SDS011;14648;49.730;8.614;2022-09-16T14:56:24;0.70;;;0.67;;
27113;SDS011;14648;49.730;8.614;2022-09-16T14:58:51;1.53;;;0.63;;
27113;SDS011;14648;49.730;8.614;2022-09-16T15:01:20;1.00;;;0.90;;
27113;SDS011;14648;49.730;8.614;2022-09-16T15:04:14;3.70;;;0.80;;
27113;SDS011;14648;49.730;8.614;2022-09-16T15:06:51;1.80;;;0.67;;
27113;SDS011;14648;49.730;8.614;2022-09-16T15:12:16;1.17;;;0.60;;
27113;SDS011;14648;49.730;8.614;2022-09-16T15:14:56;0.67;;;0.60;;
27113;SDS011;14648;49.730;8.614;2022-09-16T15:17:24;1.10;;;0.80;;
27113;SDS011;14648;49.730;8.614;2022-09-16T15:19:53;0.67;;;0.67;;
27113;SDS011;14648;49.730;8.614;2022-09-16T15:22:22;0.60;;;0.50;;
27113;SDS011;14648;49.730;8.614;2022-09-16T15:24:50;5.60;;;0.60;;
27113;SDS011;14648;49.730;8.614;2022-09-16T15:27:27;1.67;;;0.90;;
27113;SDS011;14648;49.730;8.614;2022-09-16T15:29:57;1.43;;;0.60;;
27113;SDS011;14648;49.730;8.614;2022-09-16T15:32:25;5.13;;;0.60;;
27113;SDS011;14648;49.730;8.614;2022-09-16T15:38:09;1.30;;;0.60;;
27113;SDS011;14648;49.730;8.614;2022-09-16T15:40:40;1.60;;;0.60;;
27113;SDS011;14648;49.730;8.614;2022-09-16T15:46:43;0.70;;;0.50;;
27113;SDS011;14648;49.730;8.614;2022-09-16T15:48:59;1.03;;;0.73;;
27113;SDS011;14648;49.730;8.614;2022-09-16T15:51:38;0.70;;;0.60;;
27113;SDS011;14648;49.730;8.614;2022-09-16T15:56:58;1.17;;;0.90;;
27113;SDS011;14648;49.730;8.614;2022-09-16T15:59:46;2.40;;;0.73;;
27113;SDS011;14648;49.730;8.614;2022-09-16T16:02:40;5.57;;;1.00;;
27113;SDS011;14648;49.730;8.614;2022-09-16T16:05:14;7.03;;;0.87;;
27113;SDS011;14648;49.730;8.614;2022-09-16T16:08:02;1.47;;;0.70;;
27113;SDS011;14648;49.730;8.614;2022-09-16T16:10:29;1.30;;;0.63;;
27113;SDS011;14648;49.730;8.614;2022-09-16T16:12:59;1.10;;;0.70;;
27113;SDS011;14648;49.730;8.614;2022-09-16T16:15:32;3.10;;;0.70;;
27113;SDS011;14648;49.730;8.614;2022-09-16T16:18:02;1.33;;;0.60;;
27113;SDS011;14648;49.730;8.614;2022-09-16T16:20:33;4.40;;;0.60;;
27113;SDS011;14648;49.730;8.614;2022-09-16T16:23:02;1.00;;;0.70;;
27113;SDS011;14648;49.730;8.614;2022-09-16T16:25:28;0.87;;;0.87;;
27113;SDS011;14648;49.730;8.614;2022-09-16T16:27:53;2.80;;;0.67;;
27113;SDS011;14648;49.730;8.614;2022-09-16T16:30:19;1.00;;;0.70;;
27113;SDS011;14648;49.730;8.614;2022-09-16T16:32:45;0.90;;;0.70;;
27113;SDS011;14648;49.730;8.614;2022-09-16T16:35:11;2.70;;;1.00;;
27113;SDS011;14648;49.730;8.614;2022-09-16T16:37:37;1.83;;;0.60;;
27113;SDS011;14648;49.730;8.614;2022-09-16T16:40:03;0.90;;;0.50;;
27113;SDS011;14648;49.730;8.614;2022-09-16T16:42:30;0.60;;;0.50;;
27113;SDS011;14648;49.730;8.614;2022-09-16T16:44:56;0.60;;;0.50;;
27113;SDS011;14648;49.730;8.614;2022-09-16T16:47:22;0.70;;;0.60;;
27113;SDS011;14648;49.730;8.614;2022-09-16T16:49:48;1.53;;;0.60;;
27113;SDS011;14648;49.730;8.614;2022-09-16T16:52:15;3.80;;;0.77;;
27113;SDS011;14648;49.730;8.614;2022-09-16T16:54:41;3.37;;;0.63;;
27113;SDS011;14648;49.730;8.614;2022-09-16T16:57:08;0.70;;;0.60;;
27113;SDS011;14648;49.730;8.614;2022-09-16T16:59:34;0.80;;;0.70;;
27113;SDS011;14648;49.730;8.614;2022-09-16T17:02:00;1.30;;;0.60;;
27113;SDS011;14648;49.730;8.614;2022-09-16T17:04:28;1.00;;;0.70;;
27113;SDS011;14648;49.730;8.614;2022-09-16T17:06:54;3.53;;;0.60;;
27113;SDS011;14648;49.730;8.614;2022-09-16T17:09:21;0.60;;;0.50;;
27113;SDS011;14648;49.730;8.614;2022-09-16T17:11:57;1.27;;;0.60;;
27113;SDS011;14648;49.730;8.614;2022-09-16T17:14:25;1.90;;;0.53;;
27113;SDS011;14648;49.730;8.614;2022-09-16T17:16:53;0.60;;;0.60;;
27113;SDS011;14648;49.730;8.614;2022-09-16T17:19:20;0.90;;;0.70;;
27113;SDS011;14648;49.730;8.614;2022-09-16T17:21:48;1.00;;;0.60;;
27113;SDS011;14648;49.730;8.614;2022-09-16T17:24:14;0.80;;;0.70;;
27113;SDS011;14648;49.730;8.614;2022-09-16T17:26:41;0.60;;;0.50;;
27113;SDS011;14648;49.730;8.614;2022-09-16T17:29:08;15.47;;;0.73;;
27113;SDS011;14648;49.730;8.614;2022-09-16T17:31:34;0.73;;;0.63;;
27113;SDS011;14648;49.730;8.614;2022-09-16T17:34:04;1.93;;;0.97;;
27113;SDS011;14648;49.730;8.614;2022-09-16T17:36:34;0.80;;;0.60;;
27113;SDS011;14648;49.730;8.614;2022-09-16T17:39:07;0.77;;;0.67;;
27113;SDS011;14648;49.730;8.614;2022-09-16T17:41:38;0.90;;;0.70;;
27113;SDS011;14648;49.730;8.614;2022-09-16T17:44:07;0.70;;;0.60;;
27113;SDS011;14648;49.730;8.614;2022-09-16T17:46:34;5.60;;;0.70;;
27113;SDS011;14648;49.730;8.614;2022-09-16T17:49:04;3.07;;;0.70;;
27113;SDS011;14648;49.730;8.614;2022-09-16T17:51:33;0.60;;;0.60;;
27113;SDS011;14648;49.730;8.614;2022-09-16T17:54:00;1.43;;;0.70;;
27113;SDS011;14648;49.730;8.614;2022-09-16T17:56:27;1.57;;;0.60;;
27113;SDS011;14648;49.730;8.614;2022-09-16T17:58:53;1.10;;;0.60;;
27113;SDS011;14648;49.730;8.614;2022-09-16T18:01:22;0.97;;;0.70;;
27113;SDS011;14648;49.730;8.614;2022-09-16T18:03:51;0.80;;;0.80;;
27113;SDS011;14648;49.730;8.614;2022-09-16T18:06:24;1.27;;;0.70;;
27113;SDS011;14648;49.730;8.614;2022-09-16T18:08:52;1.93;;;0.73;;
27113;SDS011;14648;49.730;8.614;2022-09-16T18:11:19;7.93;;;0.90;;
27113;SDS011;14648;49.730;8.614;2022-09-16T18:13:46;0.80;;;0.60;;
27113;SDS011;14648;49.730;8.614;2022-09-16T18:16:13;2.90;;;0.60;;
27113;SDS011;14648;49.730;8.614;2022-09-16T18:18:43;0.63;;;0.50;;